sensor_id;sensor_type;location;lat;lon;timestamp;temperature;humidity
30148;DHT22;16960;49.404;8.248;2023-07-13T00:00:47;22.10;41.80
30148;DHT22;16960;49.404;8.248;2023-07-13T00:03:13;22.10;41.70
30148;DHT22;16960;49.404;8.248;2023-07-13T00:05:41;22.10;41.70
30148;DHT22;16960;49.404;8.248;2023-07-13T00:08:08;22.00;41.60
30148;DHT22;16960;49.404;8.248;2023-07-13T00:10:40;22.00;41.60
30148;DHT22;16960;49.404;8.248;2023-07-13T00:13:08;22.00;41.50
30148;DHT22;16960;49.404;8.248;2023-07-13T00:15:35;22.00;41.60
30148;DHT22;16960;49.404;8.248;2023-07-13T00:18:03;22.00;41.60
30148;DHT22;16960;49.404;8.248;2023-07-13T00:20:30;22.00;41.50
30148;DHT22;16960;49.404;8.248;2023-07-13T00:22:57;22.00;41.50
30148;DHT22;16960;49.404;8.248;2023-07-13T00:25:24;22.00;41.50
30148;DHT22;16960;49.404;8.248;2023-07-13T00:27:55;22.00;41.50
30148;DHT22;16960;49.404;8.248;2023-07-13T00:30:22;22.00;41.60
30148;DHT22;16960;49.404;8.248;2023-07-13T00:32:49;22.00;41.70
30148;DHT22;16960;49.404;8.248;2023-07-13T00:35:17;21.90;42.20
30148;DHT22;16960;49.404;8.248;2023-07-13T00:37:44;21.90;42.70
30148;DHT22;16960;49.404;8.248;2023-07-13T00:40:13;21.90;43.00
30148;DHT22;16960;49.404;8.248;2023-07-13T00:42:40;21.80;43.00
30148;DHT22;16960;49.404;8.248;2023-07-13T00:48:06;21.70;43.20
30148;DHT22;16960;49.404;8.248;2023-07-13T00:50:32;21.60;43.20
30148;DHT22;16960;49.404;8.248;2023-07-13T00:52:59;21.60;43.30
30148;DHT22;16960;49.404;8.248;2023-07-13T00:55:27;21.50;43.60
30148;DHT22;16960;49.404;8.248;2023-07-13T00:57:54;21.50;43.70
30148;DHT22;16960;49.404;8.248;2023-07-13T01:00:22;21.40;43.80
30148;DHT22;16960;49.404;8.248;2023-07-13T01:02:50;21.40;43.90
30148;DHT22;16960;49.404;8.248;2023-07-13T01:05:21;21.30;44.10
30148;DHT22;16960;49.404;8.248;2023-07-13T01:07:50;21.30;44.20
30148;DHT22;16960;49.404;8.248;2023-07-13T01:10:21;21.20;44.20
30148;DHT22;16960;49.404;8.248;2023-07-13T01:12:49;21.20;44.40
30148;DHT22;16960;49.404;8.248;2023-07-13T01:15:39;21.20;44.50
30148;DHT22;16960;49.404;8.248;2023-07-13T01:18:16;21.10;44.50
30148;DHT22;16960;49.404;8.248;2023-07-13T01:21:01;21.10;44.60
30148;DHT22;16960;49.404;8.248;2023-07-13T01:23:30;21.00;44.50
30148;DHT22;16960;49.404;8.248;2023-07-13T01:25:57;21.10;44.70
30148;DHT22;16960;49.404;8.248;2023-07-13T01:28:26;21.00;44.50
30148;DHT22;16960;49.404;8.248;2023-07-13T01:30:55;21.00;44.30
30148;DHT22;16960;49.404;8.248;2023-07-13T01:33:22;21.10;44.30
30148;DHT22;16960;49.404;8.248;2023-07-13T01:35:49;21.10;44.20
30148;DHT22;16960;49.404;8.248;2023-07-13T01:38:21;21.10;44.10
30148;DHT22;16960;49.404;8.248;2023-07-13T01:40:48;21.00;44.00
30148;DHT22;16960;49.404;8.248;2023-07-13T01:43:15;21.00;44.10
30148;DHT22;16960;49.404;8.248;2023-07-13T01:45:42;21.00;44.00
30148;DHT22;16960;49.404;8.248;2023-07-13T01:48:10;21.00;44.10
30148;DHT22;16960;49.404;8.248;2023-07-13T01:50:37;20.90;44.20
30148;DHT22;16960;49.404;8.248;2023-07-13T01:53:04;20.90;44.20
30148;DHT22;16960;49.404;8.248;2023-07-13T01:55:34;20.90;44.30
30148;DHT22;16960;49.404;8.248;2023-07-13T01:58:01;20.90;44.40
30148;DHT22;16960;49.404;8.248;2023-07-13T02:00:28;20.80;44.30
30148;DHT22;16960;49.404;8.248;2023-07-13T02:02:55;20.80;44.40
30148;DHT22;16960;49.404;8.248;2023-07-13T02:05:22;20.80;44.50
30148;DHT22;16960;49.404;8.248;2023-07-13T02:07:49;20.70;45.00
30148;DHT22;16960;49.404;8.248;2023-07-13T02:10:17;20.70;45.30
30148;DHT22;16960;49.404;8.248;2023-07-13T02:12:47;20.60;45.50
30148;DHT22;16960;49.404;8.248;2023-07-13T02:15:15;20.50;46.10
30148;DHT22;16960;49.404;8.248;2023-07-13T02:17:42;20.50;46.40
30148;DHT22;16960;49.404;8.248;2023-07-13T02:20:09;20.40;46.50
30148;DHT22;16960;49.404;8.248;2023-07-13T02:22:36;20.30;46.80
30148;DHT22;16960;49.404;8.248;2023-07-13T02:25:03;20.20;46.90
30148;DHT22;16960;49.404;8.248;2023-07-13T02:27:31;20.20;47.00
30148;DHT22;16960;49.404;8.248;2023-07-13T02:29:59;20.10;47.20
30148;DHT22;16960;49.404;8.248;2023-07-13T02:32:27;20.10;47.30
30148;DHT22;16960;49.404;8.248;2023-07-13T02:34:54;20.00;47.10
30148;DHT22;16960;49.404;8.248;2023-07-13T02:37:21;20.00;47.20
30148;DHT22;16960;49.404;8.248;2023-07-13T02:39:47;20.00;47.10
30148;DHT22;16960;49.404;8.248;2023-07-13T02:42:14;20.10;47.50
30148;DHT22;16960;49.404;8.248;2023-07-13T02:44:41;20.20;47.00
30148;DHT22;16960;49.404;8.248;2023-07-13T02:47:10;20.30;46.90
30148;DHT22;16960;49.404;8.248;2023-07-13T02:49:37;20.50;46.40
30148;DHT22;16960;49.404;8.248;2023-07-13T02:52:04;20.60;46.30
30148;DHT22;16960;49.404;8.248;2023-07-13T02:54:31;20.70;46.20
30148;DHT22;16960;49.404;8.248;2023-07-13T02:56:58;20.80;45.70
30148;DHT22;16960;49.404;8.248;2023-07-13T02:59:25;20.80;45.50
30148;DHT22;16960;49.404;8.248;2023-07-13T03:01:52;20.90;45.60
30148;DHT22;16960;49.404;8.248;2023-07-13T03:04:21;20.80;45.70
30148;DHT22;16960;49.404;8.248;2023-07-13T03:06:47;20.80;45.70
30148;DHT22;16960;49.404;8.248;2023-07-13T03:09:14;20.80;45.70
30148;DHT22;16960;49.404;8.248;2023-07-13T03:11:41;20.80;45.90
30148;DHT22;16960;49.404;8.248;2023-07-13T03:14:08;20.90;45.90
30148;DHT22;16960;49.404;8.248;2023-07-13T03:16:35;21.00;45.70
30148;DHT22;16960;49.404;8.248;2023-07-13T03:19:03;21.00;45.60
30148;DHT22;16960;49.404;8.248;2023-07-13T03:21:31;21.00;45.50
30148;DHT22;16960;49.404;8.248;2023-07-13T03:23:58;21.10;45.30
30148;DHT22;16960;49.404;8.248;2023-07-13T03:26:25;21.10;45.40
30148;DHT22;16960;49.404;8.248;2023-07-13T03:28:52;21.20;45.30
30148;DHT22;16960;49.404;8.248;2023-07-13T03:31:20;21.20;45.20
30148;DHT22;16960;49.404;8.248;2023-07-13T03:33:47;21.20;45.30
30148;DHT22;16960;49.404;8.248;2023-07-13T03:36:17;21.20;45.20
30148;DHT22;16960;49.404;8.248;2023-07-13T03:38:48;21.20;45.10
30148;DHT22;16960;49.404;8.248;2023-07-13T03:41:15;21.20;45.00
30148;DHT22;16960;49.404;8.248;2023-07-13T03:43:43;21.20;45.10
30148;DHT22;16960;49.404;8.248;2023-07-13T03:46:10;21.20;45.00
30148;DHT22;16960;49.404;8.248;2023-07-13T03:48:37;21.20;45.20
30148;DHT22;16960;49.404;8.248;2023-07-13T03:51:05;21.00;45.50
30148;DHT22;16960;49.404;8.248;2023-07-13T03:53:32;20.90;46.00
30148;DHT22;16960;49.404;8.248;2023-07-13T03:56:00;20.60;46.40
30148;DHT22;16960;49.404;8.248;2023-07-13T03:58:30;20.60;46.40
30148;DHT22;16960;49.404;8.248;2023-07-13T04:00:58;20.50;46.40
30148;DHT22;16960;49.404;8.248;2023-07-13T04:03:26;20.60;46.20
30148;DHT22;16960;49.404;8.248;2023-07-13T04:05:54;20.60;46.30
30148;DHT22;16960;49.404;8.248;2023-07-13T04:08:25;20.60;46.40
30148;DHT22;16960;49.404;8.248;2023-07-13T04:10:52;20.50;46.70
30148;DHT22;16960;49.404;8.248;2023-07-13T04:13:21;20.40;46.70
30148;DHT22;16960;49.404;8.248;2023-07-13T04:15:48;20.30;46.70
30148;DHT22;16960;49.404;8.248;2023-07-13T04:18:15;20.30;46.90
30148;DHT22;16960;49.404;8.248;2023-07-13T04:20:42;20.20;47.10
30148;DHT22;16960;49.404;8.248;2023-07-13T04:23:09;20.20;47.10
30148;DHT22;16960;49.404;8.248;2023-07-13T04:25:36;20.20;46.90
30148;DHT22;16960;49.404;8.248;2023-07-13T04:28:04;20.20;46.90
30148;DHT22;16960;49.404;8.248;2023-07-13T04:30:32;20.30;46.90
30148;DHT22;16960;49.404;8.248;2023-07-13T04:32:59;20.40;46.60
30148;DHT22;16960;49.404;8.248;2023-07-13T04:35:26;20.40;46.90
30148;DHT22;16960;49.404;8.248;2023-07-13T04:37:53;20.50;46.80
30148;DHT22;16960;49.404;8.248;2023-07-13T04:40:20;20.60;46.50
30148;DHT22;16960;49.404;8.248;2023-07-13T04:42:47;20.60;46.50
30148;DHT22;16960;49.404;8.248;2023-07-13T04:45:15;20.70;46.60
30148;DHT22;16960;49.404;8.248;2023-07-13T04:47:44;20.70;46.50
30148;DHT22;16960;49.404;8.248;2023-07-13T04:50:13;20.80;46.40
30148;DHT22;16960;49.404;8.248;2023-07-13T04:52:45;20.80;46.20
30148;DHT22;16960;49.404;8.248;2023-07-13T04:55:12;20.90;46.30
30148;DHT22;16960;49.404;8.248;2023-07-13T04:57:39;20.90;46.30
30148;DHT22;16960;49.404;8.248;2023-07-13T05:00:07;21.00;46.30
30148;DHT22;16960;49.404;8.248;2023-07-13T05:02:38;21.00;46.30
30148;DHT22;16960;49.404;8.248;2023-07-13T05:05:07;21.00;46.30
30148;DHT22;16960;49.404;8.248;2023-07-13T05:07:34;21.00;46.20
30148;DHT22;16960;49.404;8.248;2023-07-13T05:10:01;21.10;46.30
30148;DHT22;16960;49.404;8.248;2023-07-13T05:12:28;21.10;46.30
30148;DHT22;16960;49.404;8.248;2023-07-13T05:14:55;21.10;46.30
30148;DHT22;16960;49.404;8.248;2023-07-13T05:17:22;21.20;46.30
30148;DHT22;16960;49.404;8.248;2023-07-13T05:19:49;21.20;46.90
30148;DHT22;16960;49.404;8.248;2023-07-13T05:22:17;21.20;46.90
30148;DHT22;16960;49.404;8.248;2023-07-13T05:24:44;21.20;46.30
30148;DHT22;16960;49.404;8.248;2023-07-13T05:27:11;21.20;46.20
30148;DHT22;16960;49.404;8.248;2023-07-13T05:29:38;21.20;46.20
30148;DHT22;16960;49.404;8.248;2023-07-13T05:32:06;21.30;46.40
30148;DHT22;16960;49.404;8.248;2023-07-13T05:34:33;21.30;46.40
30148;DHT22;16960;49.404;8.248;2023-07-13T05:37:00;21.40;46.40
30148;DHT22;16960;49.404;8.248;2023-07-13T05:39:28;21.40;46.40
30148;DHT22;16960;49.404;8.248;2023-07-13T05:41:55;21.40;46.40
30148;DHT22;16960;49.404;8.248;2023-07-13T05:44:22;21.40;46.50
30148;DHT22;16960;49.404;8.248;2023-07-13T05:46:49;21.40;46.50
30148;DHT22;16960;49.404;8.248;2023-07-13T05:49:16;21.40;46.90
30148;DHT22;16960;49.404;8.248;2023-07-13T05:51:43;21.40;46.70
30148;DHT22;16960;49.404;8.248;2023-07-13T05:54:09;21.50;47.10
30148;DHT22;16960;49.404;8.248;2023-07-13T05:56:38;21.50;46.90
30148;DHT22;16960;49.404;8.248;2023-07-13T05:59:05;21.60;47.10
30148;DHT22;16960;49.404;8.248;2023-07-13T06:01:32;21.50;47.30
30148;DHT22;16960;49.404;8.248;2023-07-13T06:03:59;21.50;47.20
30148;DHT22;16960;49.404;8.248;2023-07-13T06:06:25;21.60;47.50
30148;DHT22;16960;49.404;8.248;2023-07-13T06:08:52;21.60;47.60
30148;DHT22;16960;49.404;8.248;2023-07-13T06:11:22;21.60;47.20
30148;DHT22;16960;49.404;8.248;2023-07-13T06:13:50;21.60;47.20
30148;DHT22;16960;49.404;8.248;2023-07-13T06:16:18;21.60;47.20
30148;DHT22;16960;49.404;8.248;2023-07-13T06:18:45;21.60;47.20
30148;DHT22;16960;49.404;8.248;2023-07-13T06:21:14;21.60;47.20
30148;DHT22;16960;49.404;8.248;2023-07-13T06:23:42;21.60;46.90
30148;DHT22;16960;49.404;8.248;2023-07-13T06:26:10;21.60;47.20
30148;DHT22;16960;49.404;8.248;2023-07-13T06:28:37;21.60;47.50
30148;DHT22;16960;49.404;8.248;2023-07-13T06:31:08;21.60;47.20
30148;DHT22;16960;49.404;8.248;2023-07-13T06:33:35;21.70;46.90
30148;DHT22;16960;49.404;8.248;2023-07-13T06:36:02;21.70;46.30
30148;DHT22;16960;49.404;8.248;2023-07-13T06:38:29;21.80;45.60
30148;DHT22;16960;49.404;8.248;2023-07-13T06:40:56;21.70;45.20
30148;DHT22;16960;49.404;8.248;2023-07-13T06:43:23;21.80;45.00
30148;DHT22;16960;49.404;8.248;2023-07-13T06:45:51;21.80;44.80
30148;DHT22;16960;49.404;8.248;2023-07-13T06:48:22;21.80;44.50
30148;DHT22;16960;49.404;8.248;2023-07-13T06:50:50;21.80;44.50
30148;DHT22;16960;49.404;8.248;2023-07-13T06:53:19;21.90;44.50
30148;DHT22;16960;49.404;8.248;2023-07-13T06:55:46;21.90;44.30
30148;DHT22;16960;49.404;8.248;2023-07-13T06:58:15;21.90;44.30
30148;DHT22;16960;49.404;8.248;2023-07-13T07:00:42;22.00;44.10
30148;DHT22;16960;49.404;8.248;2023-07-13T07:03:09;22.10;44.20
30148;DHT22;16960;49.404;8.248;2023-07-13T07:05:37;22.10;43.90
30148;DHT22;16960;49.404;8.248;2023-07-13T07:08:04;22.20;43.50
30148;DHT22;16960;49.404;8.248;2023-07-13T07:10:32;22.10;42.90
30148;DHT22;16960;49.404;8.248;2023-07-13T07:12:59;22.20;42.80
30148;DHT22;16960;49.404;8.248;2023-07-13T07:15:26;22.20;42.70
30148;DHT22;16960;49.404;8.248;2023-07-13T07:17:53;22.20;42.40
30148;DHT22;16960;49.404;8.248;2023-07-13T07:20:20;22.20;42.30
30148;DHT22;16960;49.404;8.248;2023-07-13T07:22:49;22.20;42.40
30148;DHT22;16960;49.404;8.248;2023-07-13T07:25:16;22.10;42.70
30148;DHT22;16960;49.404;8.248;2023-07-13T07:27:43;22.20;42.60
30148;DHT22;16960;49.404;8.248;2023-07-13T07:30:11;22.20;42.70
30148;DHT22;16960;49.404;8.248;2023-07-13T07:32:38;22.20;42.90
30148;DHT22;16960;49.404;8.248;2023-07-13T07:35:05;22.30;42.10
30148;DHT22;16960;49.404;8.248;2023-07-13T07:37:32;22.30;41.80
30148;DHT22;16960;49.404;8.248;2023-07-13T07:40:01;22.30;41.40
30148;DHT22;16960;49.404;8.248;2023-07-13T07:42:28;22.30;41.50
30148;DHT22;16960;49.404;8.248;2023-07-13T07:44:55;22.30;41.60
30148;DHT22;16960;49.404;8.248;2023-07-13T07:47:22;22.40;41.60
30148;DHT22;16960;49.404;8.248;2023-07-13T07:49:49;22.40;41.80
30148;DHT22;16960;49.404;8.248;2023-07-13T07:52:16;22.40;42.00
30148;DHT22;16960;49.404;8.248;2023-07-13T07:54:43;22.50;42.10
30148;DHT22;16960;49.404;8.248;2023-07-13T07:57:12;22.50;42.20
30148;DHT22;16960;49.404;8.248;2023-07-13T07:59:39;22.50;41.90
30148;DHT22;16960;49.404;8.248;2023-07-13T08:02:08;22.60;42.10
30148;DHT22;16960;49.404;8.248;2023-07-13T08:04:35;22.70;42.30
30148;DHT22;16960;49.404;8.248;2023-07-13T08:07:02;22.70;42.10
30148;DHT22;16960;49.404;8.248;2023-07-13T08:09:29;22.70;42.00
30148;DHT22;16960;49.404;8.248;2023-07-13T08:11:56;22.90;42.10
30148;DHT22;16960;49.404;8.248;2023-07-13T08:14:24;22.90;42.10
30148;DHT22;16960;49.404;8.248;2023-07-13T08:16:51;22.90;41.90
30148;DHT22;16960;49.404;8.248;2023-07-13T08:19:19;22.90;41.30
30148;DHT22;16960;49.404;8.248;2023-07-13T08:21:46;23.00;41.50
30148;DHT22;16960;49.404;8.248;2023-07-13T08:24:14;23.10;41.50
30148;DHT22;16960;49.404;8.248;2023-07-13T08:26:44;23.20;41.50
30148;DHT22;16960;49.404;8.248;2023-07-13T08:29:11;23.20;41.30
30148;DHT22;16960;49.404;8.248;2023-07-13T08:31:39;23.20;41.20
30148;DHT22;16960;49.404;8.248;2023-07-13T08:34:06;23.30;41.50
30148;DHT22;16960;49.404;8.248;2023-07-13T08:36:33;23.40;41.50
30148;DHT22;16960;49.404;8.248;2023-07-13T08:39:00;23.50;41.50
30148;DHT22;16960;49.404;8.248;2023-07-13T08:41:27;23.50;42.20
30148;DHT22;16960;49.404;8.248;2023-07-13T08:43:58;23.50;41.40
30148;DHT22;16960;49.404;8.248;2023-07-13T08:46:28;23.60;41.50
30148;DHT22;16960;49.404;8.248;2023-07-13T08:49:02;23.60;41.40
30148;DHT22;16960;49.404;8.248;2023-07-13T08:51:37;23.70;41.40
30148;DHT22;16960;49.404;8.248;2023-07-13T08:54:12;23.80;41.50
30148;DHT22;16960;49.404;8.248;2023-07-13T08:56:45;23.80;41.30
30148;DHT22;16960;49.404;8.248;2023-07-13T08:59:14;23.90;41.40
30148;DHT22;16960;49.404;8.248;2023-07-13T09:05:00;23.90;41.40
30148;DHT22;16960;49.404;8.248;2023-07-13T09:07:40;24.00;41.30
30148;DHT22;16960;49.404;8.248;2023-07-13T09:10:14;24.00;41.30
30148;DHT22;16960;49.404;8.248;2023-07-13T09:12:51;24.10;41.40
30148;DHT22;16960;49.404;8.248;2023-07-13T09:15:27;24.10;41.30
30148;DHT22;16960;49.404;8.248;2023-07-13T09:18:00;24.10;41.40
30148;DHT22;16960;49.404;8.248;2023-07-13T09:20:32;24.20;41.20
30148;DHT22;16960;49.404;8.248;2023-07-13T09:23:03;24.20;41.20
30148;DHT22;16960;49.404;8.248;2023-07-13T09:25:33;24.20;41.20
30148;DHT22;16960;49.404;8.248;2023-07-13T09:28:09;24.20;41.20
30148;DHT22;16960;49.404;8.248;2023-07-13T09:30:43;24.30;41.30
30148;DHT22;16960;49.404;8.248;2023-07-13T09:33:11;24.30;41.40
30148;DHT22;16960;49.404;8.248;2023-07-13T09:35:40;24.30;41.30
30148;DHT22;16960;49.404;8.248;2023-07-13T09:38:12;24.30;41.30
30148;DHT22;16960;49.404;8.248;2023-07-13T09:40:46;24.40;41.20
30148;DHT22;16960;49.404;8.248;2023-07-13T09:43:17;24.40;41.30
30148;DHT22;16960;49.404;8.248;2023-07-13T09:45:46;24.40;41.40
30148;DHT22;16960;49.404;8.248;2023-07-13T09:48:15;24.40;41.40
30148;DHT22;16960;49.404;8.248;2023-07-13T09:50:44;24.50;41.40
30148;DHT22;16960;49.404;8.248;2023-07-13T09:53:12;24.50;41.40
30148;DHT22;16960;49.404;8.248;2023-07-13T09:55:41;24.60;41.30
30148;DHT22;16960;49.404;8.248;2023-07-13T09:58:11;24.60;41.20
30148;DHT22;16960;49.404;8.248;2023-07-13T10:00:39;24.60;41.20
30148;DHT22;16960;49.404;8.248;2023-07-13T10:03:17;24.60;41.20
30148;DHT22;16960;49.404;8.248;2023-07-13T10:05:49;24.60;41.00
30148;DHT22;16960;49.404;8.248;2023-07-13T10:08:18;24.70;41.20
30148;DHT22;16960;49.404;8.248;2023-07-13T10:10:46;24.70;41.20
30148;DHT22;16960;49.404;8.248;2023-07-13T10:13:30;24.70;41.20
30148;DHT22;16960;49.404;8.248;2023-07-13T10:15:59;24.80;41.10
30148;DHT22;16960;49.404;8.248;2023-07-13T10:18:26;24.70;41.10
30148;DHT22;16960;49.404;8.248;2023-07-13T10:21:09;24.80;41.10
30148;DHT22;16960;49.404;8.248;2023-07-13T10:23:36;24.80;41.00
30148;DHT22;16960;49.404;8.248;2023-07-13T10:26:05;24.80;40.90
30148;DHT22;16960;49.404;8.248;2023-07-13T10:28:38;24.80;40.90
30148;DHT22;16960;49.404;8.248;2023-07-13T10:31:12;24.80;40.90
30148;DHT22;16960;49.404;8.248;2023-07-13T10:33:40;24.80;40.90
30148;DHT22;16960;49.404;8.248;2023-07-13T10:36:14;24.80;40.90
30148;DHT22;16960;49.404;8.248;2023-07-13T10:38:42;24.80;40.80
30148;DHT22;16960;49.404;8.248;2023-07-13T10:41:14;24.80;40.80
30148;DHT22;16960;49.404;8.248;2023-07-13T10:43:43;24.80;40.80
30148;DHT22;16960;49.404;8.248;2023-07-13T10:46:13;24.80;40.80
30148;DHT22;16960;49.404;8.248;2023-07-13T10:48:42;24.80;40.80
30148;DHT22;16960;49.404;8.248;2023-07-13T10:51:14;24.80;40.80
30148;DHT22;16960;49.404;8.248;2023-07-13T10:53:43;24.80;40.90
30148;DHT22;16960;49.404;8.248;2023-07-13T10:56:22;24.80;41.50
30148;DHT22;16960;49.404;8.248;2023-07-13T10:59:02;24.80;40.90
30148;DHT22;16960;49.404;8.248;2023-07-13T11:01:41;24.80;41.00
30148;DHT22;16960;49.404;8.248;2023-07-13T11:04:13;24.90;41.00
30148;DHT22;16960;49.404;8.248;2023-07-13T11:06:43;24.90;40.90
30148;DHT22;16960;49.404;8.248;2023-07-13T11:09:34;24.90;40.90
30148;DHT22;16960;49.404;8.248;2023-07-13T11:12:07;24.90;40.90
30148;DHT22;16960;49.404;8.248;2023-07-13T11:14:37;25.00;40.80
30148;DHT22;16960;49.404;8.248;2023-07-13T11:17:23;25.00;40.70
30148;DHT22;16960;49.404;8.248;2023-07-13T11:19:52;25.00;40.90
30148;DHT22;16960;49.404;8.248;2023-07-13T11:22:25;25.00;40.70
30148;DHT22;16960;49.404;8.248;2023-07-13T11:25:00;25.00;40.70
30148;DHT22;16960;49.404;8.248;2023-07-13T11:27:39;25.10;40.70
30148;DHT22;16960;49.404;8.248;2023-07-13T11:32:43;25.10;40.60
30148;DHT22;16960;49.404;8.248;2023-07-13T11:35:13;25.10;40.60
30148;DHT22;16960;49.404;8.248;2023-07-13T11:37:45;25.10;40.60
30148;DHT22;16960;49.404;8.248;2023-07-13T11:40:13;25.20;40.50
30148;DHT22;16960;49.404;8.248;2023-07-13T11:42:40;25.20;40.40
30148;DHT22;16960;49.404;8.248;2023-07-13T11:45:19;25.20;40.30
30148;DHT22;16960;49.404;8.248;2023-07-13T11:47:48;25.20;40.30
30148;DHT22;16960;49.404;8.248;2023-07-13T11:50:20;25.30;40.30
30148;DHT22;16960;49.404;8.248;2023-07-13T11:52:50;25.30;40.20
30148;DHT22;16960;49.404;8.248;2023-07-13T11:55:20;25.30;40.40
30148;DHT22;16960;49.404;8.248;2023-07-13T11:57:51;25.40;40.30
30148;DHT22;16960;49.404;8.248;2023-07-13T12:00:23;25.40;40.30
30148;DHT22;16960;49.404;8.248;2023-07-13T12:02:54;25.40;40.30
30148;DHT22;16960;49.404;8.248;2023-07-13T12:05:22;25.40;40.30
30148;DHT22;16960;49.404;8.248;2023-07-13T12:07:52;25.40;40.30
30148;DHT22;16960;49.404;8.248;2023-07-13T12:10:21;25.50;40.30
30148;DHT22;16960;49.404;8.248;2023-07-13T12:12:51;25.50;40.20
30148;DHT22;16960;49.404;8.248;2023-07-13T12:15:18;25.50;40.30
30148;DHT22;16960;49.404;8.248;2023-07-13T12:17:46;25.50;40.30
30148;DHT22;16960;49.404;8.248;2023-07-13T12:20:21;25.60;40.30
30148;DHT22;16960;49.404;8.248;2023-07-13T12:22:51;25.60;40.30
30148;DHT22;16960;49.404;8.248;2023-07-13T12:25:18;25.60;40.30
30148;DHT22;16960;49.404;8.248;2023-07-13T12:27:50;25.60;40.30
30148;DHT22;16960;49.404;8.248;2023-07-13T12:30:29;25.70;40.30
30148;DHT22;16960;49.404;8.248;2023-07-13T12:33:00;25.70;40.30
30148;DHT22;16960;49.404;8.248;2023-07-13T12:35:29;25.70;40.30
30148;DHT22;16960;49.404;8.248;2023-07-13T12:38:02;25.70;40.30
30148;DHT22;16960;49.404;8.248;2023-07-13T12:40:33;25.70;40.20
30148;DHT22;16960;49.404;8.248;2023-07-13T12:43:03;25.70;40.30
30148;DHT22;16960;49.404;8.248;2023-07-13T12:45:33;25.70;40.30
30148;DHT22;16960;49.404;8.248;2023-07-13T12:48:05;25.70;40.20
30148;DHT22;16960;49.404;8.248;2023-07-13T12:50:38;25.80;40.30
30148;DHT22;16960;49.404;8.248;2023-07-13T12:53:13;25.80;40.30
30148;DHT22;16960;49.404;8.248;2023-07-13T12:55:42;25.80;40.30
30148;DHT22;16960;49.404;8.248;2023-07-13T12:58:16;25.80;40.20
30148;DHT22;16960;49.404;8.248;2023-07-13T13:00:49;25.80;40.20
30148;DHT22;16960;49.404;8.248;2023-07-13T13:03:23;25.80;40.10
30148;DHT22;16960;49.404;8.248;2023-07-13T13:05:57;25.80;40.10
30148;DHT22;16960;49.404;8.248;2023-07-13T13:08:26;25.80;40.20
30148;DHT22;16960;49.404;8.248;2023-07-13T13:10:53;25.90;40.00
30148;DHT22;16960;49.404;8.248;2023-07-13T13:13:21;25.90;40.00
30148;DHT22;16960;49.404;8.248;2023-07-13T13:15:48;25.90;40.00
30148;DHT22;16960;49.404;8.248;2023-07-13T13:18:18;25.90;40.00
30148;DHT22;16960;49.404;8.248;2023-07-13T13:20:47;25.90;40.00
30148;DHT22;16960;49.404;8.248;2023-07-13T13:23:16;26.00;40.40
30148;DHT22;16960;49.404;8.248;2023-07-13T13:25:45;26.00;40.50
30148;DHT22;16960;49.404;8.248;2023-07-13T13:28:14;26.00;40.40
30148;DHT22;16960;49.404;8.248;2023-07-13T13:30:43;25.90;40.00
30148;DHT22;16960;49.404;8.248;2023-07-13T13:33:11;26.00;40.40
30148;DHT22;16960;49.404;8.248;2023-07-13T13:35:40;25.90;40.00
30148;DHT22;16960;49.404;8.248;2023-07-13T13:38:11;25.90;39.90
30148;DHT22;16960;49.404;8.248;2023-07-13T13:40:40;25.90;40.00
30148;DHT22;16960;49.404;8.248;2023-07-13T13:43:15;25.90;40.00
30148;DHT22;16960;49.404;8.248;2023-07-13T13:45:44;25.80;40.00
30148;DHT22;16960;49.404;8.248;2023-07-13T13:48:15;25.80;40.10
30148;DHT22;16960;49.404;8.248;2023-07-13T13:50:42;25.80;40.20
30148;DHT22;16960;49.404;8.248;2023-07-13T13:53:11;25.80;40.30
30148;DHT22;16960;49.404;8.248;2023-07-13T13:55:39;25.80;40.30
30148;DHT22;16960;49.404;8.248;2023-07-13T13:58:08;25.80;40.40
30148;DHT22;16960;49.404;8.248;2023-07-13T14:00:36;25.80;40.50
30148;DHT22;16960;49.404;8.248;2023-07-13T14:03:04;25.70;40.60
30148;DHT22;16960;49.404;8.248;2023-07-13T14:05:32;25.70;40.60
30148;DHT22;16960;49.404;8.248;2023-07-13T14:07:59;25.70;40.60
30148;DHT22;16960;49.404;8.248;2023-07-13T14:10:27;25.70;40.70
30148;DHT22;16960;49.404;8.248;2023-07-13T14:12:55;25.60;40.70
30148;DHT22;16960;49.404;8.248;2023-07-13T14:15:26;25.60;40.80
30148;DHT22;16960;49.404;8.248;2023-07-13T14:17:55;25.60;40.80
30148;DHT22;16960;49.404;8.248;2023-07-13T14:20:25;25.60;40.90
30148;DHT22;16960;49.404;8.248;2023-07-13T14:22:52;25.60;40.90
30148;DHT22;16960;49.404;8.248;2023-07-13T14:25:21;25.60;40.90
30148;DHT22;16960;49.404;8.248;2023-07-13T14:27:49;25.60;40.90
30148;DHT22;16960;49.404;8.248;2023-07-13T14:30:20;25.60;40.90
30148;DHT22;16960;49.404;8.248;2023-07-13T14:32:48;25.50;41.00
30148;DHT22;16960;49.404;8.248;2023-07-13T14:35:18;25.50;41.00
30148;DHT22;16960;49.404;8.248;2023-07-13T14:37:47;25.50;41.10
30148;DHT22;16960;49.404;8.248;2023-07-13T14:40:15;25.50;41.20
30148;DHT22;16960;49.404;8.248;2023-07-13T14:42:43;25.50;41.20
30148;DHT22;16960;49.404;8.248;2023-07-13T14:45:14;25.50;41.20
30148;DHT22;16960;49.404;8.248;2023-07-13T14:47:42;25.50;41.20
30148;DHT22;16960;49.404;8.248;2023-07-13T14:50:14;25.50;41.20
30148;DHT22;16960;49.404;8.248;2023-07-13T14:52:44;25.50;41.20
30148;DHT22;16960;49.404;8.248;2023-07-13T14:55:12;25.50;41.20
30148;DHT22;16960;49.404;8.248;2023-07-13T14:57:39;25.50;41.20
30148;DHT22;16960;49.404;8.248;2023-07-13T15:00:13;25.50;41.20
30148;DHT22;16960;49.404;8.248;2023-07-13T15:02:43;25.50;41.20
30148;DHT22;16960;49.404;8.248;2023-07-13T15:05:15;25.50;41.20
30148;DHT22;16960;49.404;8.248;2023-07-13T15:07:44;25.50;41.30
30148;DHT22;16960;49.404;8.248;2023-07-13T15:10:16;25.50;41.30
30148;DHT22;16960;49.404;8.248;2023-07-13T15:12:44;25.50;41.30
30148;DHT22;16960;49.404;8.248;2023-07-13T15:15:11;25.50;41.30
30148;DHT22;16960;49.404;8.248;2023-07-13T15:17:40;25.50;41.20
30148;DHT22;16960;49.404;8.248;2023-07-13T15:20:17;25.50;41.30
30148;DHT22;16960;49.404;8.248;2023-07-13T15:22:47;25.50;41.30
30148;DHT22;16960;49.404;8.248;2023-07-13T15:25:16;25.50;41.30
30148;DHT22;16960;49.404;8.248;2023-07-13T15:27:44;25.50;41.30
30148;DHT22;16960;49.404;8.248;2023-07-13T15:30:12;25.50;41.30
30148;DHT22;16960;49.404;8.248;2023-07-13T15:32:41;25.50;42.10
30148;DHT22;16960;49.404;8.248;2023-07-13T15:35:14;25.50;41.40
30148;DHT22;16960;49.404;8.248;2023-07-13T15:37:42;25.50;41.30
30148;DHT22;16960;49.404;8.248;2023-07-13T15:40:12;25.50;41.30
30148;DHT22;16960;49.404;8.248;2023-07-13T15:42:40;25.50;41.30
30148;DHT22;16960;49.404;8.248;2023-07-13T15:45:18;25.50;41.30
30148;DHT22;16960;49.404;8.248;2023-07-13T15:47:46;25.50;41.30
30148;DHT22;16960;49.404;8.248;2023-07-13T15:50:14;25.50;41.30